Time;durP1;ratioP1;P1;durP2;ratioP2;P2;SDS_P1;SDS_P2;PMS_P1;PMS_P2;Temp;Humidity;BMP_temperature;BMP_pressure;BME280_temperature;BME280_humidity;BME280_pressure;Samples;Min_cycle;Max_cycle;Signal;HPM_P1;HPM_P2
2022/06/07 00:02:08;;;;;;;;;;;17.80;93.00;;;;;;5051729;28;20011;-54
2022/06/07 00:04:34;;;;;;;;;;;17.80;93.30;;;;;;5052013;28;20106;-55
2022/06/07 00:07:00;;;;;;;;;;;17.80;92.90;;;;;;5052126;28;19919;-56
2022/06/07 00:09:25;;;;;;;;;;;17.80;92.90;;;;;;5051627;28;21068;-56
2022/06/07 00:11:51;;;;;;;;;;;17.80;93.00;;;;;;5052656;28;19909;-57
2022/06/07 00:14:17;;;;;;;;;;;17.80;93.50;;;;;;5051279;28;19913;-57
2022/06/07 00:16:42;;;;;;;;;;;17.80;93.70;;;;;;5052406;28;20280;-54
2022/06/07 00:19:08;;;;;;;;;;;17.80;93.80;;;;;;5051583;28;20428;-56
2022/06/07 00:21:33;;;;;;;;;;;17.80;93.50;;;;;;5051674;28;19917;-57
2022/06/07 00:23:59;;;;;;;;;;;17.80;94.00;;;;;;5053006;28;19963;-56
2022/06/07 00:26:25;;;;;;;;;;;17.80;93.60;;;;;;5051117;28;19913;-57
2022/06/07 00:28:52;;;;;;;;;;;17.80;94.10;;;;;;5054344;28;19912;-57
2022/06/07 00:31:17;;;;;;;;;;;17.90;93.90;;;;;;5045066;28;19917;-55
2022/06/07 00:33:43;;;;;;;;;;;17.80;93.70;;;;;;5051862;28;19916;-53
2022/06/07 00:36:08;;;;;;;;;;;17.90;93.90;;;;;;5051915;28;19964;-56
2022/06/07 00:38:34;;;;;;;;;;;17.90;94.00;;;;;;5051844;28;19931;-57
2022/06/07 00:41:00;;;;;;;;;;;17.80;94.80;;;;;;5051325;28;19913;-57
2022/06/07 00:43:26;;;;;;;;;;;17.80;94.70;;;;;;5051706;28;20348;-56
2022/06/07 00:45:52;;;;;;;;;;;17.80;94.60;;;;;;5051297;28;19917;-57
2022/06/07 00:48:17;;;;;;;;;;;17.80;94.90;;;;;;5033350;28;19912;-56
2022/06/07 00:50:57;;;;;;;;;;;17.70;94.70;;;;;;5052099;28;19999;-57
2022/06/07 00:53:22;;;;;;;;;;;17.80;95.40;;;;;;5051838;28;19921;-57
2022/06/07 00:55:48;;;;;;;;;;;17.70;95.00;;;;;;5050821;28;20308;-56
2022/06/07 00:58:14;;;;;;;;;;;17.70;94.80;;;;;;5051439;28;19913;-54
2022/06/07 01:00:39;;;;;;;;;;;17.70;95.30;;;;;;5050704;28;19924;-57
2022/06/07 01:03:04;;;;;;;;;;;17.70;95.70;;;;;;5051768;28;19935;-57
2022/06/07 01:05:30;;;;;;;;;;;17.60;95.70;;;;;;5050775;28;20418;-57
2022/06/07 01:10:46;;;;;;;;;;;17.60;96.40;;;;;;5050557;28;19955;-55
2022/06/07 01:13:13;;;;;;;;;;;17.60;95.90;;;;;;5050759;28;19917;-57
2022/06/07 01:15:39;;;;;;;;;;;17.50;96.60;;;;;;5054564;28;19927;-57
2022/06/07 01:18:05;;;;;;;;;;;17.50;96.60;;;;;;5051773;28;19909;-56
2022/06/07 01:20:31;;;;;;;;;;;17.50;96.50;;;;;;5050042;28;19924;-56
2022/06/07 01:22:56;;;;;;;;;;;17.50;96.50;;;;;;5050859;28;19920;-58
2022/06/07 01:25:22;;;;;;;;;;;17.50;96.90;;;;;;5050020;28;19913;-57
2022/06/07 01:27:48;;;;;;;;;;;17.50;96.80;;;;;;5050493;28;19952;-57
2022/06/07 01:30:13;;;;;;;;;;;17.50;96.80;;;;;;5051003;28;20397;-50
2022/06/07 01:32:39;;;;;;;;;;;17.50;96.80;;;;;;5051299;28;19958;-57
2022/06/07 01:35:04;;;;;;;;;;;17.50;97.10;;;;;;5050457;28;20367;-55
2022/06/07 01:37:31;;;;;;;;;;;17.50;97.30;;;;;;5050170;28;19924;-57
2022/06/07 01:42:40;;;;;;;;;;;17.40;97.70;;;;;;5055874;28;19924;-58
2022/06/07 01:45:06;;;;;;;;;;;17.40;98.00;;;;;;5051097;28;19912;-57
2022/06/07 01:47:32;;;;;;;;;;;17.40;97.90;;;;;;5050444;28;19922;-56
2022/06/07 01:49:58;;;;;;;;;;;17.40;98.00;;;;;;5050395;28;20015;-57
2022/06/07 01:52:26;;;;;;;;;;;17.40;97.80;;;;;;5050411;28;19920;-57
2022/06/07 01:54:51;;;;;;;;;;;17.40;98.20;;;;;;5050201;28;20348;-56
2022/06/07 01:57:17;;;;;;;;;;;17.40;98.50;;;;;;5050031;28;19920;-55
2022/06/07 01:59:43;;;;;;;;;;;17.40;98.30;;;;;;5050535;28;19929;-56
2022/06/07 02:02:09;;;;;;;;;;;17.30;98.40;;;;;;5049334;28;19917;-56
2022/06/07 02:04:35;;;;;;;;;;;17.30;99.00;;;;;;5049682;28;19938;-56
2022/06/07 02:07:01;;;;;;;;;;;17.30;98.90;;;;;;5049060;28;19966;-57
2022/06/07 02:09:27;;;;;;;;;;;17.30;98.80;;;;;;5048418;28;20003;-56
2022/06/07 02:11:52;;;;;;;;;;;17.30;99.30;;;;;;5050571;28;20302;-56
2022/06/07 02:14:18;;;;;;;;;;;17.30;99.30;;;;;;5049384;28;20520;-56
2022/06/07 02:16:44;;;;;;;;;;;17.30;99.00;;;;;;5052535;28;19927;-54
2022/06/07 02:19:09;;;;;;;;;;;17.30;99.20;;;;;;5049414;28;19913;-56
2022/06/07 02:21:37;;;;;;;;;;;17.30;99.50;;;;;;5049411;28;20390;-56
2022/06/07 02:24:04;;;;;;;;;;;17.30;99.60;;;;;;5049875;28;19999;-56
2022/06/07 02:26:34;;;;;;;;;;;17.40;99.30;;;;;;5048887;28;19917;-57
2022/06/07 02:29:11;;;;;;;;;;;17.30;99.40;;;;;;5048925;28;19917;-57
2022/06/07 02:31:38;;;;;;;;;;;17.30;99.90;;;;;;5049000;28;19913;-56
2022/06/07 02:34:05;;;;;;;;;;;17.30;99.60;;;;;;5053467;28;19970;-57
2022/06/07 02:36:33;;;;;;;;;;;17.30;99.70;;;;;;5056909;28;20296;-57
2022/06/07 02:39:00;;;;;;;;;;;17.30;99.90;;;;;;5053828;28;19909;-56
2022/06/07 02:41:26;;;;;;;;;;;17.30;99.90;;;;;;5038960;28;19931;-57
2022/06/07 02:43:52;;;;;;;;;;;17.30;99.40;;;;;;5052809;28;20805;-58
2022/06/07 02:46:18;;;;;;;;;;;17.30;99.90;;;;;;5053504;28;19987;-57
2022/06/07 02:48:43;;;;;;;;;;;17.30;98.90;;;;;;5052922;28;20391;-56
2022/06/07 02:51:09;;;;;;;;;;;17.30;98.60;;;;;;5057627;28;19915;-57
2022/06/07 02:53:34;;;;;;;;;;;17.40;98.90;;;;;;5054041;28;20375;-56
2022/06/07 02:56:00;;;;;;;;;;;17.40;99.10;;;;;;5050531;28;20386;-57
2022/06/07 02:58:26;;;;;;;;;;;17.30;99.40;;;;;;5052858;28;19920;-54
2022/06/07 03:00:51;;;;;;;;;;;17.40;99.60;;;;;;5055709;28;19929;-57
2022/06/07 03:03:17;;;;;;;;;;;17.40;99.40;;;;;;5052929;28;20493;-57
2022/06/07 03:05:42;;;;;;;;;;;17.40;98.80;;;;;;5054165;28;20296;-56
2022/06/07 03:08:08;;;;;;;;;;;17.40;99.90;;;;;;5053874;28;20468;-57
2022/06/07 03:10:34;;;;;;;;;;;17.40;99.70;;;;;;5053413;28;20401;-57
2022/06/07 03:12:59;;;;;;;;;;;17.40;99.90;;;;;;5056776;28;19913;-57
2022/06/07 03:15:25;;;;;;;;;;;17.40;99.60;;;;;;5055166;28;19921;-56
2022/06/07 03:17:50;;;;;;;;;;;17.40;99.90;;;;;;5055961;28;20294;-56
2022/06/07 03:20:16;;;;;;;;;;;17.40;99.90;;;;;;5053837;28;20260;-57
2022/06/07 03:22:42;;;;;;;;;;;17.30;99.90;;;;;;5052526;28;19952;-57
2022/06/07 03:25:09;;;;;;;;;;;17.30;99.90;;;;;;5053840;28;20015;-57
2022/06/07 03:27:36;;;;;;;;;;;17.30;99.80;;;;;;5057626;28;20267;-57
2022/06/07 03:30:02;;;;;;;;;;;17.30;99.90;;;;;;5056959;28;19908;-56
2022/06/07 03:32:28;;;;;;;;;;;17.30;99.80;;;;;;5055615;28;19913;-56
2022/06/07 03:34:54;;;;;;;;;;;17.30;99.90;;;;;;5052383;28;19923;-55
2022/06/07 03:37:19;;;;;;;;;;;17.40;99.90;;;;;;5055789;28;19967;-57
2022/06/07 03:39:45;;;;;;;;;;;17.30;99.90;;;;;;5053847;28;19992;-57
2022/06/07 03:42:12;;;;;;;;;;;17.30;99.90;;;;;;5054400;28;19913;-57
2022/06/07 03:44:38;;;;;;;;;;;17.30;99.90;;;;;;5058115;28;19915;-57
2022/06/07 03:47:03;;;;;;;;;;;17.30;99.90;;;;;;5052308;28;19909;-56
2022/06/07 03:49:29;;;;;;;;;;;17.40;99.90;;;;;;5051492;28;20976;-56
2022/06/07 03:51:54;;;;;;;;;;;17.40;99.90;;;;;;5056032;28;19920;-57
2022/06/07 03:54:20;;;;;;;;;;;17.30;99.90;;;;;;5056145;28;20371;-56
2022/06/07 03:56:46;;;;;;;;;;;17.40;99.90;;;;;;5054224;28;19924;-57
2022/06/07 03:59:11;;;;;;;;;;;17.40;99.90;;;;;;5051693;28;20379;-57
2022/06/07 04:01:37;;;;;;;;;;;17.40;99.90;;;;;;5051597;28;20351;-53
2022/06/07 04:04:04;;;;;;;;;;;17.40;99.90;;;;;;5051146;28;19943;-56
2022/06/07 04:06:31;;;;;;;;;;;17.40;99.90;;;;;;5055716;28;19954;-55
2022/06/07 04:08:56;;;;;;;;;;;17.40;99.90;;;;;;5052118;28;19916;-55
2022/06/07 04:11:23;;;;;;;;;;;17.40;99.90;;;;;;5050981;28;19921;-56
2022/06/07 04:13:50;;;;;;;;;;;17.40;99.90;;;;;;5051441;28;19979;-56
2022/06/07 04:16:17;;;;;;;;;;;17.40;99.90;;;;;;5050957;28;20342;-52
2022/06/07 04:18:43;;;;;;;;;;;17.40;99.90;;;;;;5050714;28;19921;-56
2022/06/07 04:21:09;;;;;;;;;;;17.30;99.90;;;;;;5052195;28;20213;-56
2022/06/07 04:23:35;;;;;;;;;;;17.40;99.90;;;;;;5052438;28;19982;-57
2022/06/07 04:26:15;;;;;;;;;;;17.30;99.90;;;;;;5038753;28;20367;-56
2022/06/07 04:28:41;;;;;;;;;;;17.30;99.90;;;;;;5045333;28;19912;-56
2022/06/07 04:31:14;;;;;;;;;;;17.30;99.90;;;;;;5055661;28;20402;-57
2022/06/07 04:33:40;;;;;;;;;;;17.30;99.90;;;;;;5050795;28;19967;-57
2022/06/07 04:36:12;;;;;;;;;;;17.30;99.90;;;;;;5055517;28;19943;-54
2022/06/07 04:38:38;;;;;;;;;;;17.30;99.90;;;;;;5052251;28;19959;-56
2022/06/07 04:41:07;;;;;;;;;;;17.30;99.90;;;;;;5050748;28;19913;-56
2022/06/07 04:43:33;;;;;;;;;;;17.30;99.90;;;;;;5052432;28;20280;-56
2022/06/07 04:46:02;;;;;;;;;;;17.30;99.90;;;;;;5056540;28;19927;-55
2022/06/07 04:48:28;;;;;;;;;;;17.30;99.90;;;;;;5050915;28;19921;-56
2022/06/07 04:51:01;;;;;;;;;;;17.30;99.90;;;;;;5055266;28;19909;-57
2022/06/07 04:53:27;;;;;;;;;;;17.30;99.90;;;;;;5051235;28;19912;-55
2022/06/07 04:55:52;;;;;;;;;;;17.30;99.90;;;;;;5055162;28;19990;-56
2022/06/07 04:58:18;;;;;;;;;;;17.30;99.90;;;;;;5051112;28;20402;-52
2022/06/07 05:00:44;;;;;;;;;;;17.30;99.90;;;;;;5052898;28;19925;-56
2022/06/07 05:03:10;;;;;;;;;;;17.30;99.90;;;;;;5056870;28;20314;-53
2022/06/07 05:05:35;;;;;;;;;;;17.40;99.90;;;;;;5052523;28;19913;-57
2022/06/07 05:08:01;;;;;;;;;;;17.40;99.90;;;;;;5054060;28;19913;-56
2022/06/07 05:10:27;;;;;;;;;;;17.30;99.90;;;;;;5051221;28;19913;-59
2022/06/07 05:12:52;;;;;;;;;;;17.40;99.90;;;;;;5055372;28;19916;-57
2022/06/07 05:15:18;;;;;;;;;;;17.40;99.90;;;;;;5052817;28;20468;-57
2022/06/07 05:17:45;;;;;;;;;;;17.40;99.90;;;;;;5052169;28;19913;-57
2022/06/07 05:20:11;;;;;;;;;;;17.40;99.90;;;;;;5056639;28;19916;-57
2022/06/07 05:22:36;;;;;;;;;;;17.50;99.90;;;;;;5052618;28;19913;-57
2022/06/07 05:25:02;;;;;;;;;;;17.50;99.90;;;;;;5050947;28;20177;-57
2022/06/07 05:27:30;;;;;;;;;;;17.50;99.90;;;;;;5054675;28;19921;-57
2022/06/07 05:29:56;;;;;;;;;;;17.50;99.90;;;;;;5054172;28;19967;-57
2022/06/07 05:32:22;;;;;;;;;;;17.50;99.90;;;;;;5053507;28;19956;-57
2022/06/07 05:34:47;;;;;;;;;;;17.50;99.90;;;;;;5050252;28;19967;-56
2022/06/07 05:37:14;;;;;;;;;;;17.60;99.90;;;;;;5053487;28;19920;-57
2022/06/07 05:39:39;;;;;;;;;;;17.60;99.90;;;;;;5051390;28;19948;-57
2022/06/07 05:42:06;;;;;;;;;;;17.60;99.90;;;;;;5051225;28;19956;-56
2022/06/07 05:44:32;;;;;;;;;;;17.70;99.90;;;;;;5050305;28;19987;-57
2022/06/07 05:46:59;;;;;;;;;;;17.70;99.90;;;;;;5049715;28;19920;-57
2022/06/07 05:49:25;;;;;;;;;;;17.70;99.90;;;;;;5049921;28;19916;-56
2022/06/07 05:51:50;;;;;;;;;;;17.80;99.90;;;;;;5050159;28;19917;-56
2022/06/07 05:54:16;;;;;;;;;;;17.80;99.90;;;;;;5049667;28;19924;-54
2022/06/07 05:56:42;;;;;;;;;;;17.80;99.90;;;;;;5049813;28;19920;-57
2022/06/07 05:59:07;;;;;;;;;;;17.90;99.90;;;;;;5049172;28;19909;-56
2022/06/07 06:01:33;;;;;;;;;;;17.90;99.90;;;;;;5051257;28;19923;-57
2022/06/07 06:03:59;;;;;;;;;;;17.90;99.90;;;;;;5049043;28;19920;-56
2022/06/07 06:06:25;;;;;;;;;;;17.90;99.90;;;;;;5049148;28;20002;-57
2022/06/07 06:11:36;;;;;;;;;;;17.90;99.90;;;;;;5050007;28;19923;-57
2022/06/07 06:14:01;;;;;;;;;;;17.90;99.90;;;;;;5049030;28;20348;-57
2022/06/07 06:16:27;;;;;;;;;;;17.90;99.90;;;;;;5048938;28;20013;-54
2022/06/07 06:18:54;;;;;;;;;;;17.90;99.90;;;;;;5049223;28;19932;-56
2022/06/07 06:21:21;;;;;;;;;;;17.90;99.90;;;;;;5049111;28;19916;-57
2022/06/07 06:23:47;;;;;;;;;;;17.90;99.90;;;;;;5050055;28;19991;-57
2022/06/07 06:26:14;;;;;;;;;;;17.90;99.90;;;;;;5049016;28;20004;-57
2022/06/07 06:28:39;;;;;;;;;;;17.90;99.90;;;;;;5048571;28;19923;-56
2022/06/07 06:31:06;;;;;;;;;;;17.90;99.90;;;;;;5049001;28;19912;-57
2022/06/07 06:33:38;;;;;;;;;;;17.90;99.90;;;;;;5049139;28;19944;-56
2022/06/07 06:36:04;;;;;;;;;;;17.90;99.90;;;;;;5049684;28;19927;-57
2022/06/07 06:38:30;;;;;;;;;;;17.90;99.90;;;;;;5047225;28;19913;-56
2022/06/07 06:40:56;;;;;;;;;;;17.90;99.90;;;;;;5050396;28;19913;-56
2022/06/07 06:43:22;;;;;;;;;;;18.00;99.90;;;;;;5049214;28;20000;-56
2022/06/07 06:45:47;;;;;;;;;;;18.00;99.90;;;;;;5048984;28;19970;-56
2022/06/07 06:48:13;;;;;;;;;;;18.00;99.90;;;;;;5049406;28;19912;-57
2022/06/07 06:50:38;;;;;;;;;;;18.10;99.90;;;;;;5049676;28;19913;-56
2022/06/07 06:53:04;;;;;;;;;;;18.10;99.90;;;;;;5048309;28;19944;-55
2022/06/07 06:55:30;;;;;;;;;;;18.10;99.90;;;;;;5049014;28;19920;-58
2022/06/07 06:57:56;;;;;;;;;;;18.20;99.90;;;;;;5047122;28;20411;-58
2022/06/07 07:00:22;;;;;;;;;;;18.20;99.90;;;;;;5052250;28;19954;-57
2022/06/07 07:02:48;;;;;;;;;;;18.30;99.90;;;;;;5042386;28;19925;-58
2022/06/07 07:05:14;;;;;;;;;;;18.40;99.90;;;;;;5048259;28;19967;-58
2022/06/07 07:07:40;;;;;;;;;;;18.40;99.90;;;;;;5048474;28;20008;-58
2022/06/07 07:10:06;;;;;;;;;;;18.40;99.90;;;;;;5049020;28;20024;-59
2022/06/07 07:12:32;;;;;;;;;;;18.40;99.90;;;;;;5048189;28;20011;-58
2022/06/07 07:14:58;;;;;;;;;;;18.40;99.90;;;;;;5049080;28;20366;-59
2022/06/07 07:17:23;;;;;;;;;;;18.40;99.90;;;;;;5048189;28;19917;-59
2022/06/07 07:19:49;;;;;;;;;;;18.40;99.90;;;;;;5053772;28;19974;-57
2022/06/07 07:22:16;;;;;;;;;;;18.50;99.90;;;;;;5052143;28;19913;-57
2022/06/07 07:24:42;;;;;;;;;;;18.50;99.90;;;;;;5053169;28;19917;-58
2022/06/07 07:27:08;;;;;;;;;;;18.60;99.90;;;;;;5052332;28;19909;-59
2022/06/07 07:29:34;;;;;;;;;;;18.60;99.90;;;;;;5052132;28;19916;-59
2022/06/07 07:31:59;;;;;;;;;;;18.60;99.90;;;;;;5046045;28;19917;-58
2022/06/07 07:34:25;;;;;;;;;;;18.60;99.90;;;;;;5047685;28;19913;-60
2022/06/07 07:36:51;;;;;;;;;;;18.60;99.90;;;;;;5049552;28;20043;-58
2022/06/07 07:39:17;;;;;;;;;;;18.60;99.90;;;;;;5048123;28;20436;-58
2022/06/07 07:41:45;;;;;;;;;;;18.60;99.90;;;;;;5049643;28;19917;-58
2022/06/07 07:44:12;;;;;;;;;;;18.70;99.90;;;;;;5048411;28;19921;-59
2022/06/07 07:46:38;;;;;;;;;;;18.70;99.90;;;;;;5050834;28;19917;-58
2022/06/07 07:49:05;;;;;;;;;;;18.80;99.90;;;;;;5050462;28;20679;-59
2022/06/07 07:51:35;;;;;;;;;;;18.90;99.90;;;;;;5049652;28;19913;-59
2022/06/07 07:54:01;;;;;;;;;;;18.90;99.90;;;;;;5052886;28;19917;-59
2022/06/07 07:56:27;;;;;;;;;;;18.90;99.90;;;;;;5049100;28;19924;-59
2022/06/07 07:58:54;;;;;;;;;;;18.90;99.90;;;;;;5031346;28;20276;-58
2022/06/07 08:01:24;;;;;;;;;;;18.90;99.90;;;;;;5050043;28;20038;-59
2022/06/07 08:03:51;;;;;;;;;;;19.00;99.90;;;;;;5047854;28;20243;-59
2022/06/07 08:06:17;;;;;;;;;;;19.10;99.90;;;;;;5049159;28;20027;-57
2022/06/07 08:08:45;;;;;;;;;;;19.10;99.90;;;;;;5049549;28;19921;-58
2022/06/07 08:11:11;;;;;;;;;;;19.20;99.90;;;;;;5049332;28;19999;-59
2022/06/07 08:13:36;;;;;;;;;;;19.20;99.90;;;;;;5049023;28;20039;-59
2022/06/07 08:16:03;;;;;;;;;;;19.30;99.90;;;;;;5030174;28;19920;-59
2022/06/07 08:18:29;;;;;;;;;;;19.30;99.90;;;;;;5050159;28;19917;-59
2022/06/07 08:20:59;;;;;;;;;;;19.40;99.90;;;;;;5049844;28;19939;-58
2022/06/07 08:23:25;;;;;;;;;;;19.40;99.90;;;;;;5048844;28;19960;-59
2022/06/07 08:25:50;;;;;;;;;;;19.40;99.90;;;;;;5049449;28;20432;-58
2022/06/07 08:28:16;;;;;;;;;;;19.40;99.90;;;;;;5049128;28;20000;-57
2022/06/07 08:30:46;;;;;;;;;;;19.50;99.90;;;;;;5048705;28;20398;-59
2022/06/07 08:38:40;;;;;;;;;;;19.80;99.90;;;;;;5051182;28;19974;-58
2022/06/07 08:41:05;;;;;;;;;;;19.80;99.90;;;;;;5030148;28;19913;-57
2022/06/07 08:43:31;;;;;;;;;;;19.90;99.90;;;;;;5051303;28;19940;-57
2022/06/07 08:45:57;;;;;;;;;;;19.90;99.90;;;;;;5047976;28;19927;-58
2022/06/07 08:48:32;;;;;;;;;;;20.00;99.90;;;;;;5029483;28;19960;-58
2022/06/07 08:51:16;;;;;;;;;;;20.00;99.90;;;;;;5048944;28;19920;-57
2022/06/07 08:53:45;;;;;;;;;;;20.00;99.90;;;;;;5047583;28;19944;-59
2022/06/07 08:56:14;;;;;;;;;;;20.10;99.90;;;;;;5047115;28;20019;-57
2022/06/07 08:58:42;;;;;;;;;;;20.20;99.90;;;;;;5047643;28;19920;-58
2022/06/07 09:01:22;;;;;;;;;;;20.20;99.90;;;;;;5029463;28;19970;-57
2022/06/07 09:03:59;;;;;;;;;;;20.20;99.90;;;;;;5047986;28;19921;-58
2022/06/07 09:06:29;;;;;;;;;;;20.20;99.90;;;;;;5046815;28;20011;-59
2022/06/07 09:08:57;;;;;;;;;;;20.30;99.90;;;;;;5049509;28;19917;-59
2022/06/07 09:14:18;;;;;;;;;;;20.20;99.90;;;;;;5048507;28;19948;-58
2022/06/07 09:16:44;;;;;;;;;;;20.20;99.90;;;;;;5047705;28;19925;-58
2022/06/07 09:19:10;;;;;;;;;;;20.10;99.90;;;;;;5049281;28;19924;-58
2022/06/07 09:21:38;;;;;;;;;;;20.10;99.90;;;;;;5050944;28;19978;-59
2022/06/07 09:24:08;;;;;;;;;;;20.10;99.90;;;;;;5048024;28;19924;-61
2022/06/07 09:26:37;;;;;;;;;;;20.00;99.90;;;;;;5047529;28;19916;-57
2022/06/07 09:29:05;;;;;;;;;;;20.00;99.90;;;;;;5048196;28;19921;-58
2022/06/07 09:31:31;;;;;;;;;;;20.00;99.90;;;;;;5047563;28;19935;-60
2022/06/07 09:33:58;;;;;;;;;;;20.10;99.90;;;;;;5050066;28;20473;-59
2022/06/07 09:36:26;;;;;;;;;;;20.20;99.90;;;;;;5048206;28;19924;-59
2022/06/07 09:38:55;;;;;;;;;;;20.30;99.90;;;;;;5049488;28;19917;-60
2022/06/07 09:41:36;;;;;;;;;;;20.40;99.90;;;;;;5046073;28;21437;-59
2022/06/07 09:44:16;;;;;;;;;;;20.30;99.90;;;;;;5047809;28;19924;-60
2022/06/07 09:46:43;;;;;;;;;;;20.30;99.90;;;;;;5048883;28;19913;-60
2022/06/07 09:49:23;;;;;;;;;;;20.30;99.90;;;;;;5047701;28;20587;-58
2022/06/07 09:51:49;;;;;;;;;;;20.30;99.90;;;;;;5047082;28;20679;-59
2022/06/07 09:54:17;;;;;;;;;;;20.40;99.90;;;;;;5049288;28;19920;-61
2022/06/07 09:56:43;;;;;;;;;;;20.40;99.90;;;;;;5048322;28;19920;-60
2022/06/07 09:59:32;;;;;;;;;;;20.40;98.90;;;;;;5047541;28;19920;-60
2022/06/07 10:02:13;;;;;;;;;;;20.40;99.90;;;;;;5047094;28;19921;-60
2022/06/07 10:04:50;;;;;;;;;;;20.40;99.70;;;;;;5044173;28;19924;-61
2022/06/07 10:07:18;;;;;;;;;;;20.50;99.80;;;;;;5047873;28;19920;-61
2022/06/07 10:09:57;;;;;;;;;;;20.50;99.50;;;;;;5047616;28;19927;-61
2022/06/07 10:12:22;;;;;;;;;;;20.60;98.20;;;;;;5045922;28;19920;-61
2022/06/07 10:14:51;;;;;;;;;;;20.50;98.20;;;;;;5048642;28;20311;-61
2022/06/07 10:17:17;;;;;;;;;;;20.50;98.50;;;;;;5049708;28;19917;-61
2022/06/07 10:19:54;;;;;;;;;;;20.50;99.00;;;;;;5048917;28;19938;-59
2022/06/07 10:22:20;;;;;;;;;;;20.60;99.00;;;;;;5046239;28;19917;-60
2022/06/07 10:24:56;;;;;;;;;;;20.70;99.10;;;;;;5046727;28;19921;-59
2022/06/07 10:27:29;;;;;;;;;;;20.80;97.80;;;;;;5046410;28;19982;-62
2022/06/07 10:30:14;;;;;;;;;;;20.70;98.10;;;;;;5050411;28;19913;-61
2022/06/07 10:32:59;;;;;;;;;;;20.60;97.80;;;;;;5048297;28;19916;-62
2022/06/07 10:36:04;;;;;;;;;;;20.50;97.30;;;;;;5046473;28;19920;-59
2022/06/07 10:38:29;;;;;;;;;;;20.50;97.50;;;;;;4947916;28;19931;-61
2022/06/07 10:40:57;;;;;;;;;;;20.50;97.80;;;;;;4946233;29;19915;-61
2022/06/07 10:43:26;;;;;;;;;;;20.60;97.80;;;;;;4947258;28;19930;-60
2022/06/07 10:45:59;;;;;;;;;;;20.60;97.60;;;;;;4947739;28;20314;-62
2022/06/07 10:48:38;;;;;;;;;;;20.50;97.60;;;;;;4945655;28;19925;-62
2022/06/07 10:54:04;;;;;;;;;;;20.50;97.20;;;;;;4953022;28;20002;-60
2022/06/07 10:56:39;;;;;;;;;;;20.50;97.20;;;;;;4952656;28;19933;-61
2022/06/07 10:59:13;;;;;;;;;;;20.60;97.10;;;;;;4949698;28;19982;-60
2022/06/07 11:01:44;;;;;;;;;;;20.60;97.20;;;;;;4947236;28;19956;-62
2022/06/07 11:09:19;;;;;;;;;;;20.60;96.90;;;;;;4950410;28;19919;-62
2022/06/07 11:09:50;;;;;;;;;;;20.40;96.60;;;;;;5021331;28;19984;-62
2022/06/07 11:12:22;;;;;;;;;;;20.40;96.80;;;;;;5053559;28;20402;-63
2022/06/07 11:14:50;;;;;;;;;;;20.40;96.80;;;;;;5050741;28;20379;-61
2022/06/07 11:17:21;;;;;;;;;;;20.40;96.70;;;;;;5050295;28;19987;-61
2022/06/07 11:19:48;;;;;;;;;;;20.50;95.80;;;;;;5049823;28;19960;-60
2022/06/07 11:22:16;;;;;;;;;;;20.40;96.10;;;;;;5051337;28;19912;-70
2022/06/07 11:24:52;;;;;;;;;;;20.40;95.80;;;;;;5048266;28;19917;-72
2022/06/07 11:27:19;;;;;;;;;;;20.50;96.20;;;;;;5050187;28;19978;-70
2022/06/07 11:29:45;;;;;;;;;;;20.60;96.20;;;;;;5051853;28;19923;-71
2022/06/07 11:32:37;;;;;;;;;;;20.70;95.90;;;;;;5050328;28;19913;-70
2022/06/07 11:35:21;;;;;;;;;;;20.70;96.00;;;;;;5043391;28;20008;-70
2022/06/07 11:37:51;;;;;;;;;;;20.80;95.70;;;;;;5048788;28;19920;-71
2022/06/07 11:40:29;;;;;;;;;;;20.90;95.30;;;;;;5050787;28;20003;-71
2022/06/07 11:42:54;;;;;;;;;;;20.90;94.80;;;;;;5050444;28;19921;-71
2022/06/07 11:45:24;;;;;;;;;;;21.00;95.40;;;;;;5050502;28;20442;-71
2022/06/07 11:47:53;;;;;;;;;;;21.00;95.20;;;;;;5050574;28;19913;-70
2022/06/07 11:50:27;;;;;;;;;;;21.10;95.40;;;;;;5050258;28;20398;-73
2022/06/07 11:52:58;;;;;;;;;;;21.30;95.20;;;;;;5050528;28;19920;-71
2022/06/07 11:55:25;;;;;;;;;;;21.40;94.60;;;;;;5048239;28;19921;-70
2022/06/07 11:57:54;;;;;;;;;;;21.40;94.40;;;;;;5049500;28;20382;-71
2022/06/07 12:00:19;;;;;;;;;;;21.40;93.60;;;;;;5048480;28;19925;-73
2022/06/07 12:02:57;;;;;;;;;;;21.40;94.00;;;;;;5050773;28;19913;-73
2022/06/07 12:05:37;;;;;;;;;;;21.50;93.40;;;;;;5047936;28;19936;-72
2022/06/07 12:08:13;;;;;;;;;;;21.40;93.30;;;;;;5049381;28;19920;-72
2022/06/07 12:10:40;;;;;;;;;;;21.40;93.70;;;;;;5047123;28;19920;-71
2022/06/07 12:13:11;;;;;;;;;;;21.50;93.30;;;;;;5050636;28;20002;-74
2022/06/07 12:15:41;;;;;;;;;;;21.50;92.90;;;;;;5050183;28;19917;-72
2022/06/07 12:18:16;;;;;;;;;;;21.50;93.30;;;;;;5050589;28;20387;-72
2022/06/07 12:20:43;;;;;;;;;;;21.50;93.60;;;;;;5049841;28;20051;-69
2022/06/07 12:23:09;;;;;;;;;;;21.60;93.80;;;;;;5049105;28;19916;-71
2022/06/07 12:25:35;;;;;;;;;;;21.70;94.10;;;;;;5049769;28;20454;-72
2022/06/07 12:28:03;;;;;;;;;;;21.80;94.40;;;;;;5049434;28;19939;-71
2022/06/07 12:30:33;;;;;;;;;;;21.90;93.00;;;;;;5049939;28;19912;-71
2022/06/07 12:33:33;;;;;;;;;;;21.90;93.70;;;;;;5049725;28;19928;-71
2022/06/07 12:36:01;;;;;;;;;;;21.90;93.60;;;;;;4968505;28;19929;-72
2022/06/07 12:38:28;;;;;;;;;;;22.00;93.70;;;;;;4968498;28;20001;-70
2022/06/07 12:40:54;;;;;;;;;;;22.00;92.90;;;;;;4968015;28;20412;-71
2022/06/07 12:43:22;;;;;;;;;;;22.00;92.90;;;;;;4965610;28;19949;-71
2022/06/07 12:45:55;;;;;;;;;;;21.90;92.80;;;;;;4968795;28;19918;-67
2022/06/07 12:48:21;;;;;;;;;;;21.90;91.90;;;;;;4968182;28;19959;-68
2022/06/07 12:50:47;;;;;;;;;;;21.80;92.60;;;;;;4968376;28;19918;-70
2022/06/07 12:53:39;;;;;;;;;;;21.80;92.40;;;;;;4967936;28;19919;-72
2022/06/07 12:56:12;;;;;;;;;;;21.80;92.70;;;;;;4967051;28;19926;-72
2022/06/07 12:58:48;;;;;;;;;;;21.90;92.60;;;;;;4964385;28;19922;-61
2022/06/07 13:01:21;;;;;;;;;;;21.90;92.70;;;;;;4950306;28;20441;-62
2022/06/07 13:03:47;;;;;;;;;;;21.90;92.70;;;;;;4967814;28;19922;-63
2022/06/07 13:06:18;;;;;;;;;;;22.00;91.80;;;;;;4968316;28;19918;-62
2022/06/07 13:08:54;;;;;;;;;;;22.00;92.10;;;;;;4971079;28;19915;-58
2022/06/07 13:11:20;;;;;;;;;;;22.00;91.70;;;;;;5002925;28;19924;-63
2022/06/07 13:13:46;;;;;;;;;;;22.00;92.00;;;;;;5050614;28;20397;-64
2022/06/07 13:16:11;;;;;;;;;;;22.10;92.20;;;;;;5049187;28;19956;-63
2022/06/07 13:18:41;;;;;;;;;;;22.10;92.40;;;;;;5048700;28;20059;-64
2022/06/07 13:21:10;;;;;;;;;;;22.20;92.20;;;;;;5032443;28;19967;-60
2022/06/07 13:23:38;;;;;;;;;;;22.20;92.10;;;;;;5049487;28;20454;-62
2022/06/07 13:26:11;;;;;;;;;;;22.30;91.80;;;;;;5048563;28;20283;-63
2022/06/07 13:28:37;;;;;;;;;;;22.30;91.80;;;;;;5045049;28;20333;-62
2022/06/07 13:31:03;;;;;;;;;;;22.50;91.80;;;;;;5048314;28;19921;-62
2022/06/07 13:33:33;;;;;;;;;;;22.60;91.80;;;;;;5048795;28;19920;-61
2022/06/07 13:36:00;;;;;;;;;;;22.70;91.20;;;;;;5048608;28;19928;-63
2022/06/07 13:38:28;;;;;;;;;;;22.80;91.70;;;;;;5048614;28;20310;-63
2022/06/07 13:41:20;;;;;;;;;;;22.90;91.30;;;;;;5048147;28;20118;-59
2022/06/07 13:43:50;;;;;;;;;;;23.00;91.80;;;;;;5040374;28;19917;-64
2022/06/07 13:46:30;;;;;;;;;;;23.00;91.50;;;;;;5047808;28;19948;-65
2022/06/07 13:54:52;;;;;;;;;;;23.10;90.10;;;;;;5046901;28;19920;-64
2022/06/07 13:57:18;;;;;;;;;;;23.00;90.10;;;;;;5048228;28;19925;-65
2022/06/07 13:59:46;;;;;;;;;;;23.00;90.00;;;;;;5048571;28;20007;-62
2022/06/07 14:02:12;;;;;;;;;;;23.00;90.10;;;;;;5048265;28;19924;-62
2022/06/07 14:04:37;;;;;;;;;;;22.90;89.80;;;;;;5046872;28;19912;-62
2022/06/07 14:07:03;;;;;;;;;;;22.90;89.70;;;;;;5047445;28;19976;-63
2022/06/07 14:09:29;;;;;;;;;;;22.90;90.20;;;;;;5047204;28;19913;-63
2022/06/07 14:11:56;;;;;;;;;;;23.00;90.50;;;;;;5048804;28;19921;-61
2022/06/07 14:14:23;;;;;;;;;;;23.00;90.40;;;;;;5045889;28;20406;-64
2022/06/07 14:16:54;;;;;;;;;;;23.00;90.30;;;;;;5047171;28;19931;-62
2022/06/07 14:19:22;;;;;;;;;;;23.10;89.20;;;;;;5047381;28;20035;-64
2022/06/07 14:21:51;;;;;;;;;;;23.00;88.20;;;;;;5046457;28;19917;-64
2022/06/07 14:24:19;;;;;;;;;;;22.90;88.50;;;;;;5051857;28;19917;-64
2022/06/07 14:26:45;;;;;;;;;;;22.80;86.90;;;;;;5048663;28;19996;-63
2022/06/07 14:29:11;;;;;;;;;;;22.70;87.20;;;;;;5054547;28;19920;-63
2022/06/07 14:31:36;;;;;;;;;;;22.70;87.30;;;;;;5053809;28;19917;-61
2022/06/07 14:34:02;;;;;;;;;;;22.70;87.20;;;;;;5053963;28;19923;-65
2022/06/07 14:36:28;;;;;;;;;;;22.80;87.60;;;;;;5053827;28;19927;-64
2022/06/07 14:38:53;;;;;;;;;;;22.80;87.30;;;;;;5054301;28;19993;-60
2022/06/07 14:41:19;;;;;;;;;;;23.00;85.60;;;;;;5053381;28;20322;-61
2022/06/07 14:43:45;;;;;;;;;;;23.00;86.00;;;;;;5053275;28;19931;-62
2022/06/07 14:46:11;;;;;;;;;;;23.00;86.10;;;;;;5053950;28;19919;-61
2022/06/07 14:48:38;;;;;;;;;;;23.00;87.20;;;;;;5055003;28;19912;-60
2022/06/07 14:51:05;;;;;;;;;;;23.10;87.60;;;;;;5056472;28;19923;-61